Time;durP1;ratioP1;P1;durP2;ratioP2;P2;SDS_P1;SDS_P2;PMS_P1;PMS_P2;Temp;Humidity;BMP_temperature;BMP_pressure;BME280_temperature;BME280_humidity;BME280_pressure;Samples;Min_cycle;Max_cycle;Signal;HPM_P1;HPM_P2
2022/09/18 00:00:47;;;;;;;8.32;6.25;;;;;;;11.62;85.12;98557.53;5064972;28;20021;-69
2022/09/18 00:03:14;;;;;;;7.20;6.35;;;;;;;11.58;85.71;98560.22;5062918;28;20096;-69
2022/09/18 00:05:40;;;;;;;8.93;6.22;;;;;;;11.61;85.17;98566.22;5063981;28;20336;-69
2022/09/18 00:08:07;;;;;;;8.98;5.72;;;;;;;11.60;85.46;98554.16;5063814;28;20096;-68
2022/09/18 00:10:38;;;;;;;7.07;5.68;;;;;;;11.52;85.62;98550.13;5063148;28;20017;-71
2022/09/18 00:13:04;;;;;;;7.30;5.47;;;;;;;11.50;85.28;98540.75;5064079;28;20044;-70
2022/09/18 00:15:30;;;;;;;8.18;6.47;;;;;;;11.60;85.09;98559.34;5048414;28;20089;-70
2022/09/18 00:17:55;;;;;;;8.93;6.47;;;;;;;11.54;85.95;98556.13;5049124;28;20376;-70
2022/09/18 00:20:21;;;;;;;9.38;6.38;;;;;;;11.51;85.83;98551.03;5063243;28;20028;-70
2022/09/18 00:22:47;;;;;;;7.85;6.13;;;;;;;11.55;85.99;98543.97;5063199;28;20058;-70
2022/09/18 00:25:12;;;;;;;8.00;6.38;;;;;;;11.53;85.66;98536.28;5063958;28;20021;-70
2022/09/18 00:27:38;;;;;;;7.30;6.50;;;;;;;11.54;85.75;98544.88;5061745;28;20036;-71
2022/09/18 00:30:04;;;;;;;8.55;6.40;;;;;;;11.53;85.60;98544.06;5060033;28;20380;-71
2022/09/18 00:32:30;;;;;;;8.68;6.40;;;;;;;11.48;86.17;98539.97;5061884;28;20348;-72
2022/09/18 00:34:55;;;;;;;8.82;7.00;;;;;;;11.48;86.38;98540.81;5061692;28;20040;-71
2022/09/18 00:37:21;;;;;;;9.63;6.50;;;;;;;11.48;85.91;98537.38;5061558;28;20063;-69
2022/09/18 00:39:46;;;;;;;8.32;6.65;;;;;;;11.45;86.45;98538.34;5061377;28;20335;-70
2022/09/18 00:42:12;;;;;;;6.53;5.93;;;;;;;11.46;86.47;98521.91;5060789;28;20021;-70
2022/09/18 00:44:44;;;;;;;10.55;6.82;;;;;;;11.45;86.52;98535.75;5061393;28;20017;-70
2022/09/18 00:47:09;;;;;;;9.18;6.55;;;;;;;11.47;85.99;98538.28;5062946;28;20029;-71
2022/09/18 00:49:43;;;;;;;9.38;6.60;;;;;;;11.41;85.93;98531.63;5063139;28;20040;-70
2022/09/18 00:52:10;;;;;;;9.20;6.53;;;;;;;11.38;86.97;98540.38;5063014;28;20036;-70
2022/09/18 00:54:37;;;;;;;9.18;6.40;;;;;;;11.37;86.65;98549.06;5063012;28;20029;-69
2022/09/18 00:57:07;;;;;;;9.27;6.57;;;;;;;11.38;87.11;98542.97;5063124;28;20087;-70
2022/09/18 00:59:35;;;;;;;9.32;6.75;;;;;;;11.37;86.35;98530.06;5062565;28;20029;-70
2022/09/18 01:02:01;;;;;;;9.20;6.38;;;;;;;11.44;86.93;98536.66;5063042;28;20024;-69
2022/09/18 01:04:28;;;;;;;9.25;6.65;;;;;;;11.34;86.82;98535.38;5062646;28;20036;-70
2022/09/18 01:07:15;;;;;;;9.02;6.20;;;;;;;11.35;87.26;98537.91;5062740;28;20047;-69
2022/09/18 01:10:02;;;;;;;9.30;6.93;;;;;;;11.39;86.63;98541.22;5062690;28;20067;-70
2022/09/18 01:12:49;;;;;;;6.90;5.82;;;;;;;11.31;87.68;98548.47;5061652;28;20117;-70
2022/09/18 01:15:40;;;;;;;10.82;7.00;;;;;;;11.39;87.27;98546.41;5063023;28;20032;-70
2022/09/18 01:18:24;;;;;;;12.57;6.63;;;;;;;11.43;86.44;98547.97;5061701;28;20049;-70
2022/09/18 01:20:55;;;;;;;9.63;8.18;;;;;;;11.39;86.63;98554.19;5060810;28;20202;-70
2022/09/18 01:23:58;;;;;;;14.70;8.98;;;;;;;11.31;87.24;98543.31;5062998;28;20036;-70
2022/09/18 01:26:33;;;;;;;9.23;7.10;;;;;;;11.30;87.15;98550.25;5063042;28;20057;-70
2022/09/18 01:29:21;;;;;;;12.20;8.25;;;;;;;11.29;87.26;98555.50;5062359;28;20032;-70
2022/09/18 01:32:01;;;;;;;8.23;7.43;;;;;;;11.30;86.85;98559.75;5043159;28;20025;-70
2022/09/18 01:34:45;;;;;;;8.65;7.70;;;;;;;11.26;87.67;98555.59;5043107;28;20028;-70
2022/09/18 01:37:17;;;;;;;10.63;7.75;;;;;;;11.29;87.14;98564.09;5062555;28;20033;-71
2022/09/18 01:39:56;;;;;;;12.05;8.52;;;;;;;11.22;87.38;98560.91;5062928;28;20035;-71
2022/09/18 01:42:27;;;;;;;13.70;8.38;;;;;;;11.18;87.46;98559.38;5062324;28;20093;-70
2022/09/18 01:44:57;;;;;;;11.98;8.90;;;;;;;11.20;87.53;98565.34;5062655;28;20032;-70
2022/09/18 01:47:28;;;;;;;9.68;8.10;;;;;;;11.22;87.48;98570.47;5062557;28;20067;-69
2022/09/18 01:49:58;;;;;;;11.52;8.85;;;;;;;11.16;87.17;98568.09;5062108;28;20059;-69
2022/09/18 01:52:32;;;;;;;13.05;9.25;;;;;;;11.15;87.59;98572.44;5042516;28;20024;-69
2022/09/18 01:55:01;;;;;;;10.52;8.68;;;;;;;11.04;87.68;98561.69;5059315;28;20245;-69
2022/09/18 01:57:46;;;;;;;11.63;8.15;;;;;;;11.10;86.77;98569.22;5061977;28;20508;-68
2022/09/18 02:00:12;;;;;;;9.73;7.85;;;;;;;11.10;87.53;98576.16;5062359;28;20096;-68
2022/09/18 02:03:00;;;;;;;10.32;8.35;;;;;;;11.02;87.84;98574.72;5062053;28;20029;-69
2022/09/18 02:05:30;;;;;;;10.40;7.55;;;;;;;10.99;87.68;98563.66;5062066;28;20221;-68
2022/09/18 02:08:11;;;;;;;10.35;7.80;;;;;;;10.93;87.45;98551.78;5062552;28;20071;-68
2022/09/18 02:10:54;;;;;;;8.38;7.45;;;;;;;11.07;87.25;98577.09;5042017;28;20064;-68
2022/09/18 02:13:26;;;;;;;8.57;7.75;;;;;;;11.04;86.96;98577.25;5061759;28;20340;-68
2022/09/18 02:15:56;;;;;;;9.20;7.78;;;;;;;10.99;87.71;98582.63;5062289;28;20044;-69
2022/09/18 02:18:28;;;;;;;12.98;7.85;;;;;;;10.96;87.25;98577.56;5062400;28;20244;-68
2022/09/18 02:20:55;;;;;;;8.45;7.65;;;;;;;11.04;87.38;98577.25;5061277;28;20029;-68
2022/09/18 02:23:23;;;;;;;10.18;7.43;;;;;;;11.04;87.54;98577.25;5062027;28;20051;-68
2022/09/18 02:25:53;;;;;;;9.18;7.72;;;;;;;10.95;87.31;98562.91;5058271;28;20258;-69
2022/09/18 02:28:22;;;;;;;9.25;7.63;;;;;;;11.01;86.70;98567.84;5042178;28;20039;-69
2022/09/18 02:30:48;;;;;;;10.63;9.10;;;;;;;10.87;87.34;98560.66;5042491;28;20061;-67
2022/09/18 02:33:29;;;;;;;12.52;8.40;;;;;;;10.91;88.29;98566.53;5052990;28;20025;-69
2022/09/18 02:36:33;;;;;;;12.52;8.57;;;;;;;10.91;88.04;98569.13;5062014;28;20374;-68
2022/09/18 02:39:20;;;;;;;9.70;8.15;;;;;;;10.86;87.87;98563.31;5061984;28;20058;-68
2022/09/18 02:41:58;;;;;;;13.43;8.07;;;;;;;10.94;87.72;98579.34;5061712;28;20032;-68
2022/09/18 02:44:45;;;;;;;9.68;7.95;;;;;;;10.85;87.39;98556.44;5062066;28;20025;-68
2022/09/18 02:47:32;;;;;;;11.15;8.05;;;;;;;10.96;87.72;98581.88;5060847;28;20252;-69
2022/09/18 02:50:27;;;;;;;10.85;8.07;;;;;;;10.92;87.44;98590.72;5063957;28;20032;-68
2022/09/18 02:53:05;;;;;;;11.45;9.30;;;;;;;10.87;87.49;98596.91;5066377;28;20028;-68
2022/09/18 02:55:45;;;;;;;13.13;9.35;;;;;;;10.84;87.69;98588.41;5065918;28;20028;-69
2022/09/18 02:58:23;;;;;;;11.60;8.45;;;;;;;10.74;87.12;98581.94;5065273;28;20052;-69
2022/09/18 03:00:50;;;;;;;14.38;8.45;;;;;;;10.81;87.68;98602.31;5065076;28;20052;-69
2022/09/18 03:03:19;;;;;;;9.18;8.00;;;;;;;10.83;87.47;98604.84;5044222;28;20344;-69
2022/09/18 03:05:45;;;;;;;15.32;11.95;;;;;;;10.75;88.08;98597.41;5062288;28;20229;-69
2022/09/18 03:08:11;;;;;;;12.05;9.63;;;;;;;10.81;87.54;98596.31;5064018;28;20032;-69
2022/09/18 03:10:36;;;;;;;11.77;9.25;;;;;;;10.76;87.62;98593.91;5065059;28;20283;-69
2022/09/18 03:13:02;;;;;;;10.93;8.65;;;;;;;10.79;87.61;98593.78;5064132;28;20040;-68
2022/09/18 03:15:28;;;;;;;12.13;9.05;;;;;;;10.75;87.57;98588.81;5064878;28;20032;-68
2022/09/18 03:17:54;;;;;;;10.43;9.20;;;;;;;10.80;86.99;98599.81;5065005;28;20033;-69
2022/09/18 03:20:19;;;;;;;12.13;8.60;;;;;;;10.77;87.19;98602.53;5064511;28;20051;-68
2022/09/18 03:22:45;;;;;;;10.10;8.27;;;;;;;10.73;87.17;98594.03;5064985;28;20037;-69
2022/09/18 03:25:13;;;;;;;9.52;8.52;;;;;;;10.74;86.77;98598.28;5065083;28;20056;-68
2022/09/18 03:27:38;;;;;;;9.38;8.43;;;;;;;10.71;87.12;98598.44;5064403;28;20016;-69
2022/09/18 03:30:05;;;;;;;13.48;8.55;;;;;;;10.76;86.69;98606.00;5064770;28;20209;-68
2022/09/18 03:32:31;;;;;;;8.95;8.15;;;;;;;10.72;87.10;98597.53;5064284;28;20029;-69
2022/09/18 03:34:57;;;;;;;10.05;8.52;;;;;;;10.70;86.95;98594.13;5063953;28;20305;-69
2022/09/18 03:37:23;;;;;;;11.68;9.10;;;;;;;10.69;86.91;98587.31;5064626;28;20091;-69
2022/09/18 03:39:48;;;;;;;16.02;9.43;;;;;;;10.66;87.19;98597.75;5064624;28;20028;-68
2022/09/18 03:42:14;;;;;;;12.43;9.43;;;;;;;10.69;87.39;98597.66;5064441;28;20036;-69
2022/09/18 03:44:40;;;;;;;12.23;9.65;;;;;;;10.73;87.32;98606.13;5064428;28;20028;-69
2022/09/18 03:47:08;;;;;;;10.70;8.90;;;;;;;10.75;87.28;98601.75;5064294;28;20033;-69
2022/09/18 03:49:34;;;;;;;14.25;9.85;;;;;;;10.73;87.29;98604.41;5064078;28;20131;-69
2022/09/18 03:52:01;;;;;;;12.32;10.13;;;;;;;10.56;88.13;98571.41;5064478;28;20047;-69
2022/09/18 03:54:26;;;;;;;11.73;10.00;;;;;;;10.69;88.38;98585.53;5064122;28;20036;-68
2022/09/18 03:56:52;;;;;;;13.27;9.20;;;;;;;10.73;88.08;98588.88;5063924;28;20028;-68
2022/09/18 03:59:18;;;;;;;13.63;10.40;;;;;;;10.62;88.43;98588.44;5064003;28;20040;-69
2022/09/18 04:01:43;;;;;;;11.77;9.63;;;;;;;10.73;88.84;98585.41;5062734;28;20206;-69
2022/09/18 04:04:09;;;;;;;11.95;9.27;;;;;;;10.80;88.22;98585.13;5063728;28;20071;-69
2022/09/18 04:06:34;;;;;;;13.88;10.60;;;;;;;10.77;89.27;98580.03;5064119;28;20025;-69
2022/09/18 04:09:00;;;;;;;15.02;9.85;;;;;;;10.83;88.45;98572.03;5063798;28;20096;-69
2022/09/18 04:11:26;;;;;;;11.60;10.43;;;;;;;10.86;89.20;98577.09;5062854;28;20045;-69
2022/09/18 04:13:52;;;;;;;12.38;9.80;;;;;;;10.91;88.69;98582.09;5062927;28;20029;-70
2022/09/18 04:16:17;;;;;;;13.30;10.43;;;;;;;10.95;88.61;98583.66;5063597;28;20028;-70
2022/09/18 04:18:43;;;;;;;11.95;10.00;;;;;;;10.98;88.24;98588.69;5063825;28;20025;-70
2022/09/18 04:21:08;;;;;;;11.38;9.55;;;;;;;11.00;88.58;98580.84;5063797;28;20515;-70
2022/09/18 04:23:34;;;;;;;11.65;9.73;;;;;;;11.04;88.45;98590.19;5062455;28;20032;-69
2022/09/18 04:26:07;;;;;;;13.30;9.95;;;;;;;10.98;89.26;98580.09;5062766;28;20025;-69
2022/09/18 04:28:33;;;;;;;12.43;9.65;;;;;;;11.01;88.66;98582.56;5043770;28;20033;-69
2022/09/18 04:30:58;;;;;;;16.20;10.23;;;;;;;11.08;89.08;98589.16;5059237;28;20399;-70
2022/09/18 04:33:24;;;;;;;12.45;10.07;;;;;;;11.07;88.81;98587.47;5063437;28;20347;-69
2022/09/18 04:35:50;;;;;;;16.15;10.93;;;;;;;11.01;89.29;98579.97;5063374;28;20028;-69
2022/09/18 04:38:15;;;;;;;10.70;9.32;;;;;;;11.12;88.82;98587.31;5063340;28;20025;-68
2022/09/18 04:40:41;;;;;;;13.40;10.32;;;;;;;11.07;88.70;98582.28;5062697;28;20033;-70
2022/09/18 04:43:09;;;;;;;13.25;10.30;;;;;;;11.09;89.07;98582.22;5063476;28;20546;-70
2022/09/18 04:45:35;;;;;;;14.25;10.05;;;;;;;11.16;88.63;98589.69;5063162;28;20084;-70
2022/09/18 04:48:01;;;;;;;16.42;11.07;;;;;;;11.11;89.11;98585.59;5063151;28;20244;-70
2022/09/18 04:50:26;;;;;;;14.10;10.55;;;;;;;10.90;90.07;98584.72;5063269;28;20024;-71
2022/09/18 04:52:52;;;;;;;12.23;10.18;;;;;;;11.11;89.99;98585.59;5062996;28;20025;-70
2022/09/18 04:55:18;;;;;;;18.52;10.48;;;;;;;11.13;90.27;98587.25;5063177;28;20082;-71
2022/09/18 04:57:44;;;;;;;13.20;9.77;;;;;;;11.23;89.10;98570.38;5062977;28;20029;-70
2022/09/18 05:00:10;;;;;;;14.88;11.02;;;;;;;11.32;89.09;98578.69;5063420;28;20052;-70
2022/09/18 05:02:37;;;;;;;18.10;11.43;;;;;;;11.36;89.34;98581.06;5063672;28;20049;-69
2022/09/18 05:05:03;;;;;;;14.50;11.48;;;;;;;11.44;88.49;98575.56;5063152;28;20044;-70
2022/09/18 05:07:30;;;;;;;12.40;10.45;;;;;;;11.55;88.49;98573.34;5062137;28;20091;-70
2022/09/18 05:09:55;;;;;;;14.27;12.15;;;;;;;11.70;88.76;98578.75;5061613;28;20033;-71
2022/09/18 05:12:21;;;;;;;15.65;13.55;;;;;;;11.70;87.88;98589.13;5062047;28;20045;-71
2022/09/18 05:14:47;;;;;;;15.55;12.63;;;;;;;11.64;87.96;98576.44;5062441;28;20035;-70
2022/09/18 05:17:12;;;;;;;17.10;14.00;;;;;;;11.71;88.02;98580.44;5062593;28;20028;-70
2022/09/18 05:19:38;;;;;;;18.77;12.85;;;;;;;11.77;87.92;98581.94;5062768;28;20071;-69
2022/09/18 05:22:04;;;;;;;15.27;13.10;;;;;;;11.78;88.06;98574.09;5062753;28;20344;-70
2022/09/18 05:24:29;;;;;;;18.33;12.57;;;;;;;11.94;87.83;98570.84;5062628;28;20040;-69
2022/09/18 05:26:55;;;;;;;14.82;13.27;;;;;;;11.89;87.01;98556.28;5063454;28;20062;-70
2022/09/18 05:29:20;;;;;;;18.90;11.85;;;;;;;12.07;88.06;98572.81;5062194;28;20217;-69
2022/09/18 05:31:46;;;;;;;16.80;13.15;;;;;;;12.03;87.91;98573.88;5065007;28;20033;-70
2022/09/18 05:34:12;;;;;;;15.88;12.23;;;;;;;12.14;87.04;98563.00;5062526;28;20313;-69
2022/09/18 05:36:37;;;;;;;14.80;12.25;;;;;;;12.24;87.07;98561.66;5062555;28;20028;-69
2022/09/18 05:39:03;;;;;;;18.33;11.75;;;;;;;12.24;87.25;98566.84;5062214;28;20021;-69
2022/09/18 05:41:29;;;;;;;14.73;11.43;;;;;;;12.28;86.98;98564.94;5062437;28;20055;-70
2022/09/18 05:43:54;;;;;;;15.65;11.07;;;;;;;12.35;86.50;98558.53;5062780;28;20029;-70
2022/09/18 05:46:20;;;;;;;18.58;11.68;;;;;;;12.34;86.21;98566.41;5062321;28;20029;-69
2022/09/18 05:48:48;;;;;;;16.08;11.32;;;;;;;12.38;85.85;98553.19;5062476;28;20154;-70
2022/09/18 05:51:14;;;;;;;12.98;10.30;;;;;;;12.53;85.92;98541.25;5062499;28;20033;-69
2022/09/18 05:53:41;;;;;;;17.58;10.73;;;;;;;12.66;85.89;98548.47;5062042;28;20045;-69
2022/09/18 05:56:07;;;;;;;16.50;11.30;;;;;;;12.71;85.44;98536.94;5062486;28;20075;-69
2022/09/18 05:58:33;;;;;;;15.48;11.45;;;;;;;12.84;84.74;98544.09;5062183;28;20371;-69
2022/09/18 06:01:00;;;;;;;13.15;10.07;;;;;;;12.90;84.46;98538.63;5062189;28;20025;-69
2022/09/18 06:03:26;;;;;;;13.40;9.57;;;;;;;12.93;83.76;98530.69;5061024;28;20097;-69
2022/09/18 06:05:53;;;;;;;14.13;9.73;;;;;;;13.03;84.14;98536.25;5062028;28;20040;-69
2022/09/18 06:08:19;;;;;;;15.02;9.57;;;;;;;13.03;84.13;98550.09;5062237;28;20102;-68
2022/09/18 06:10:45;;;;;;;16.35;11.00;;;;;;;12.84;84.38;98547.56;5061979;28;20037;-69
2022/09/18 06:13:16;;;;;;;14.23;10.95;;;;;;;12.84;83.95;98555.38;5061033;28;20041;-71
2022/09/18 06:15:47;;;;;;;14.07;11.40;;;;;;;12.84;84.68;98544.97;5062073;28;20052;-69
2022/09/18 06:18:13;;;;;;;13.40;10.68;;;;;;;12.76;84.07;98547.09;5061461;28;20102;-70
2022/09/18 06:20:41;;;;;;;15.82;12.25;;;;;;;12.68;84.86;98531.03;5061787;28;20074;-70
2022/09/18 06:23:07;;;;;;;16.45;12.02;;;;;;;12.85;84.16;98558.78;5063250;28;20033;-69
2022/09/18 06:25:33;;;;;;;13.73;10.05;;;;;;;13.07;84.40;98566.38;5065766;28;20071;-69
2022/09/18 06:27:59;;;;;;;15.10;11.05;;;;;;;13.02;84.67;98551.00;5064676;28;20028;-71
2022/09/18 06:30:26;;;;;;;17.08;10.70;;;;;;;13.25;83.47;98555.06;5065943;28;20021;-69
2022/09/18 06:32:53;;;;;;;18.83;12.18;;;;;;;13.17;83.11;98549.41;5065563;28;20067;-69
2022/09/18 06:35:19;;;;;;;13.85;11.05;;;;;;;13.20;83.65;98546.63;5065637;28;20021;-69
2022/09/18 06:37:45;;;;;;;24.98;12.82;;;;;;;13.18;82.46;98551.09;5064709;28;20031;-70
2022/09/18 06:40:11;;;;;;;21.73;11.70;;;;;;;13.19;82.65;98555.34;5065536;28;20205;-69
2022/09/18 06:42:36;;;;;;;15.27;11.07;;;;;;;13.24;83.16;98548.16;5065542;28;20029;-70
2022/09/18 06:45:02;;;;;;;18.33;11.50;;;;;;;13.21;83.38;98547.47;5065703;28;20033;-70
2022/09/18 06:47:29;;;;;;;15.50;10.57;;;;;;;13.40;82.90;98544.81;5065542;28;20031;-69
2022/09/18 06:49:55;;;;;;;16.23;11.20;;;;;;;13.34;81.55;98542.47;5065862;28;20266;-72
2022/09/18 06:52:20;;;;;;;17.67;11.50;;;;;;;13.41;82.50;98551.69;5065794;28;20033;-72
2022/09/18 06:54:46;;;;;;;18.17;10.82;;;;;;;13.34;82.16;98547.69;5065171;28;20317;-70
2022/09/18 06:57:12;;;;;;;13.18;10.23;;;;;;;13.43;81.26;98544.66;5065329;28;20037;-70
2022/09/18 06:59:37;;;;;;;18.98;10.88;;;;;;;13.57;81.43;98549.97;5066382;28;20032;-70
2022/09/18 07:02:04;;;;;;;13.20;9.75;;;;;;;13.60;81.91;98549.81;5072322;28;20043;-69
2022/09/18 07:04:30;;;;;;;14.48;10.95;;;;;;;13.56;81.50;98550.88;5065094;28;20144;-70
2022/09/18 07:06:56;;;;;;;20.05;10.13;;;;;;;13.61;81.94;98550.66;5072362;28;20080;-70
2022/09/18 07:09:21;;;;;;;12.88;10.20;;;;;;;13.55;81.54;98554.44;5069092;28;20032;-71
2022/09/18 07:11:47;;;;;;;15.23;10.60;;;;;;;13.61;81.06;98553.25;5066080;28;20040;-70
2022/09/18 07:14:12;;;;;;;12.60;9.75;;;;;;;13.60;81.05;98538.59;5075674;28;20044;-72
2022/09/18 07:16:38;;;;;;;12.90;9.38;;;;;;;13.75;80.29;98547.31;5067296;28;20056;-70
2022/09/18 07:19:04;;;;;;;9.90;8.30;;;;;;;13.71;80.31;98551.88;5063568;28;20045;-72
2022/09/18 07:21:29;;;;;;;14.63;8.85;;;;;;;13.68;80.39;98536.41;5064915;28;20059;-70
2022/09/18 07:23:56;;;;;;;12.27;9.10;;;;;;;13.91;80.07;98534.31;5063526;28;20360;-71
2022/09/18 07:26:21;;;;;;;14.38;8.88;;;;;;;14.11;80.55;98541.09;5064798;28;20115;-70
2022/09/18 07:28:47;;;;;;;9.95;7.82;;;;;;;14.06;77.70;98538.72;5064553;28;20333;-71
2022/09/18 07:31:13;;;;;;;11.48;8.05;;;;;;;14.26;78.20;98536.78;5064301;28;20249;-73
2022/09/18 07:33:39;;;;;;;13.02;8.00;;;;;;;14.41;78.32;98535.94;5064349;28;20147;-71
2022/09/18 07:36:05;;;;;;;9.00;7.95;;;;;;;14.53;77.84;98528.34;5064055;28;20021;-68
2022/09/18 07:38:33;;;;;;;12.30;7.32;;;;;;;14.53;76.70;98520.53;5063476;28;20063;-70
2022/09/18 07:41:03;;;;;;;10.27;7.78;;;;;;;14.39;77.23;98522.16;5065604;28;20025;-67
2022/09/18 07:43:29;;;;;;;11.50;7.78;;;;;;;14.42;77.54;98510.72;5065446;28;20059;-69
2022/09/18 07:45:55;;;;;;;9.00;7.47;;;;;;;14.43;76.57;98518.44;5064827;28;20032;-71
2022/09/18 07:48:22;;;;;;;9.20;7.47;;;;;;;14.47;77.43;98521.72;5064415;28;20029;-69
2022/09/18 07:50:47;;;;;;;9.07;7.82;;;;;;;14.63;76.76;98517.34;5064536;28;20327;-70
2022/09/18 07:53:13;;;;;;;8.57;7.43;;;;;;;14.69;76.81;98499.69;5064325;28;20025;-70
2022/09/18 07:55:41;;;;;;;7.57;6.78;;;;;;;14.72;76.26;98500.38;5068791;28;20309;-73
2022/09/18 07:58:07;;;;;;;9.32;6.88;;;;;;;14.83;76.44;98494.50;5073112;28;20032;-72
2022/09/18 08:00:35;;;;;;;8.32;6.30;;;;;;;15.12;76.12;98485.00;5073359;28;20028;-71
2022/09/18 08:03:08;;;;;;;11.18;6.95;;;;;;;15.27;75.13;98480.59;5075585;28;20028;-72
2022/09/18 08:05:37;;;;;;;7.60;6.80;;;;;;;15.38;74.97;98482.56;5079607;28;20091;-71
2022/09/18 08:08:11;;;;;;;9.50;6.80;;;;;;;15.21;74.47;98470.56;5083076;28;20062;-73
2022/09/18 08:10:38;;;;;;;7.47;6.53;;;;;;;15.55;74.34;98473.72;5066446;28;20328;-72
2022/09/18 08:13:04;;;;;;;7.15;6.07;;;;;;;15.81;74.92;98468.69;5064117;28;20374;-72
2022/09/18 08:15:30;;;;;;;10.20;7.82;;;;;;;15.61;73.54;98460.28;5063607;28;20029;-72
2022/09/18 08:17:56;;;;;;;9.65;7.03;;;;;;;15.68;73.69;98456.34;5063780;28;20040;-72
2022/09/18 08:20:22;;;;;;;8.10;7.15;;;;;;;15.50;73.14;98442.66;5062688;28;20039;-71
2022/09/18 08:22:49;;;;;;;7.03;6.32;;;;;;;15.58;72.76;98451.81;5063430;28;20055;-71
2022/09/18 08:25:16;;;;;;;9.02;7.28;;;;;;;15.73;72.34;98447.41;5065382;28;20039;-69
2022/09/18 08:27:42;;;;;;;10.05;6.95;;;;;;;15.69;72.14;98442.38;5063619;28;20036;-71
2022/09/18 08:30:10;;;;;;;7.35;6.65;;;;;;;15.49;72.61;98435.78;5069879;28;20032;-70
2022/09/18 08:32:36;;;;;;;8.30;7.10;;;;;;;15.62;73.52;98433.25;5080939;28;20039;-71
2022/09/18 08:35:03;;;;;;;11.90;8.18;;;;;;;15.60;73.13;98435.09;5063720;28;20194;-69
2022/09/18 08:37:31;;;;;;;10.65;8.18;;;;;;;15.72;73.61;98430.91;5063245;28;20025;-69
2022/09/18 08:39:57;;;;;;;13.80;9.55;;;;;;;15.26;74.58;98431.16;5069590;28;20032;-68
2022/09/18 08:42:40;;;;;;;18.02;11.32;;;;;;;15.11;75.85;98428.53;5061116;28;20256;-71
2022/09/18 08:45:15;;;;;;;19.63;11.13;;;;;;;15.02;76.20;98424.72;5059988;28;20332;-69
2022/09/18 08:48:22;;;;;;;12.27;10.85;;;;;;;15.16;75.26;98423.91;5075207;28;20021;-70
2022/09/18 08:50:58;;;;;;;16.23;11.30;;;;;;;15.22;75.33;98403.56;5046349;28;20045;-68
2022/09/18 08:53:37;;;;;;;17.35;12.75;;;;;;;14.99;76.12;98409.28;5059670;28;20025;-68
2022/09/18 08:56:07;;;;;;;19.20;12.45;;;;;;;15.31;75.96;98414.28;5060326;28;20032;-69
2022/09/18 08:58:47;;;;;;;19.60;13.95;;;;;;;15.32;75.04;98402.06;5064776;28;20024;-69
2022/09/18 09:01:18;;;;;;;19.20;13.93;;;;;;;15.15;76.01;98390.09;5061129;28;20092;-70
2022/09/18 09:03:53;;;;;;;16.30;12.18;;;;;;;15.07;75.99;98402.75;5059718;28;20393;-71
2022/09/18 09:06:46;;;;;;;16.52;12.07;;;;;;;15.15;75.16;98396.13;5061745;28;20029;-70
2022/09/18 09:09:19;;;;;;;19.48;11.95;;;;;;;15.35;74.90;98394.91;5062020;28;20021;-71
2022/09/18 09:11:57;;;;;;;14.35;10.68;;;;;;;15.46;74.83;98393.38;5061487;28;20044;-72
2022/09/18 09:14:56;;;;;;;13.85;10.05;;;;;;;15.37;74.17;98394.81;5066180;28;20102;-72
2022/09/18 09:17:32;;;;;;;12.93;9.25;;;;;;;15.59;75.15;98393.44;5064541;28;20044;-71
2022/09/18 09:20:20;;;;;;;10.25;8.30;;;;;;;15.34;72.02;98380.16;5064630;28;20025;-71
2022/09/18 09:23:02;;;;;;;11.65;8.65;;;;;;;15.35;72.38;98387.06;5060233;28;20190;-70
2022/09/18 09:25:44;;;;;;;11.90;8.13;;;;;;;15.36;72.54;98378.31;5063523;28;20029;-71
2022/09/18 09:28:15;;;;;;;16.67;9.55;;;;;;;15.38;73.16;98385.19;5057336;28;20309;-71
2022/09/18 09:30:43;;;;;;;11.18;9.85;;;;;;;15.18;74.36;98390.72;5061954;28;20041;-72
2022/09/18 09:33:24;;;;;;;17.20;9.73;;;;;;;15.38;74.36;98385.19;5061990;28;20086;-71
2022/09/18 09:35:58;;;;;;;13.38;9.15;;;;;;;15.18;73.57;98359.44;5060833;28;20063;-70
2022/09/18 09:38:37;;;;;;;10.98;9.45;;;;;;;15.15;74.54;98374.44;5061335;28;20036;-70
2022/09/18 09:41:26;;;;;;;14.63;9.52;;;;;;;15.08;75.08;98384.41;5062680;28;20025;-70
2022/09/18 09:44:12;;;;;;;14.23;10.27;;;;;;;15.10;75.12;98381.69;5052518;28;20341;-71
2022/09/18 09:46:47;;;;;;;13.75;10.25;;;;;;;15.25;74.96;98370.31;5060469;28;20053;-70
2022/09/18 09:49:50;;;;;;;11.13;9.10;;;;;;;14.94;75.55;98364.38;5062518;28;20029;-68
2022/09/18 09:52:27;;;;;;;11.45;9.40;;;;;;;15.25;75.09;98365.09;5055470;28;20040;-71
2022/09/18 09:55:13;;;;;;;11.18;10.00;;;;;;;15.14;75.14;98370.16;5062004;28;20036;-72
2022/09/18 09:58:00;;;;;;;12.45;9.73;;;;;;;14.98;75.93;98363.25;5062546;28;20104;-69
2022/09/18 10:00:33;;;;;;;13.73;10.30;;;;;;;14.78;76.31;98356.66;5065924;28;20032;-69
2022/09/18 10:03:04;;;;;;;13.02;10.00;;;;;;;14.90;76.40;98349.84;5069982;28;20032;-70
2022/09/18 10:05:48;;;;;;;10.45;9.43;;;;;;;15.04;76.16;98345.56;5075241;28;20224;-71
2022/09/18 10:08:41;;;;;;;13.70;9.20;;;;;;;14.69;77.00;98336.34;5081119;28;20021;-71
2022/09/18 10:11:10;;;;;;;11.27;8.35;;;;;;;14.78;76.96;98335.81;5071782;28;20181;-72
2022/09/18 10:14:04;;;;;;;15.95;8.40;;;;;;;14.86;77.08;98348.34;5076743;28;20036;-70
2022/09/18 10:16:56;;;;;;;13.68;8.32;;;;;;;14.98;76.81;98355.44;5074746;28;20405;-70
2022/09/18 10:19:28;;;;;;;12.60;8.20;;;;;;;14.80;76.74;98339.13;5072900;28;20042;-71
2022/09/18 10:21:55;;;;;;;10.27;7.60;;;;;;;15.05;76.51;98332.44;5074356;28;20016;-70
2022/09/18 10:24:30;;;;;;;9.60;7.20;;;;;;;15.15;76.47;98332.72;5076792;28;20081;-69
2022/09/18 10:27:02;;;;;;;12.60;8.38;;;;;;;15.08;76.91;98332.25;5083082;28;20217;-70
2022/09/18 10:29:28;;;;;;;11.77;7.95;;;;;;;15.05;77.30;98323.75;5078163;28;20031;-73
2022/09/18 10:31:58;;;;;;;9.68;8.07;;;;;;;14.89;77.28;98309.06;5064677;28;20016;-71
2022/09/18 10:34:40;;;;;;;12.52;7.97;;;;;;;14.82;77.29;98315.59;5068182;28;20025;-72
2022/09/18 10:37:27;;;;;;;9.90;8.32;;;;;;;14.81;76.94;98319.16;5065174;28;20101;-73
2022/09/18 10:39:56;;;;;;;9.85;7.72;;;;;;;14.60;77.64;98310.81;5058243;28;20037;-72
2022/09/18 10:42:30;;;;;;;10.35;8.10;;;;;;;14.72;77.18;98301.44;5065323;28;20032;-73
2022/09/18 10:45:01;;;;;;;11.80;8.15;;;;;;;14.65;77.40;98303.56;5065149;28;20048;-73
2022/09/18 10:47:35;;;;;;;9.45;7.53;;;;;;;14.64;77.47;98286.28;5071024;28;20028;-73
2022/09/18 10:50:17;;;;;;;12.82;8.25;;;;;;;14.86;77.05;98295.41;5065856;28;20037;-71
2022/09/18 10:52:45;;;;;;;;;;;;;;;14.81;77.62;98293.09;5073437;28;20044;-71
2022/09/18 10:55:17;;;;;;;11.65;7.85;;;;;;;14.70;77.46;98287.69;5072968;28;20185;-70
2022/09/18 10:57:55;;;;;;;9.43;7.30;;;;;;;14.63;78.55;98292.41;5070406;28;20028;-71
2022/09/18 11:00:24;;;;;;;8.32;6.85;;;;;;;14.64;77.74;98292.31;5074149;28;20025;-72
2022/09/18 11:02:54;;;;;;;10.73;7.13;;;;;;;14.59;78.77;98277.88;5071853;28;20035;-72
2022/09/18 11:05:31;;;;;;;11.32;7.28;;;;;;;14.75;78.70;98293.44;5070423;28;20024;-73
2022/09/18 11:08:00;;;;;;;10.30;8.38;;;;;;;14.38;79.77;98272.19;5075611;28;20023;-72
2022/09/18 11:10:31;;;;;;;10.93;8.57;;;;;;;14.40;79.64;98268.56;5073549;28;20027;-72
2022/09/18 11:13:00;;;;;;;10.25;8.18;;;;;;;14.38;79.75;98274.78;5077317;28;20037;-70
2022/09/18 11:15:35;;;;;;;10.18;8.32;;;;;;;14.29;80.96;98286.59;5074594;28;20071;-69
2022/09/18 11:18:04;;;;;;;11.68;8.82;;;;;;;14.35;80.66;98262.81;5074994;28;20055;-73
2022/09/18 11:20:34;;;;;;;11.43;9.48;;;;;;;14.53;80.26;98258.25;5065061;28;20025;-75
2022/09/18 11:23:18;;;;;;;10.80;9.80;;;;;;;14.64;80.77;98268.03;5063457;28;20051;-73
2022/09/18 11:25:45;;;;;;;14.43;11.43;;;;;;;14.53;80.61;98266.06;5064914;28;20066;-72
2022/09/18 11:28:31;;;;;;;19.63;13.10;;;;;;;14.52;81.93;98264.38;5063325;28;20031;-74
2022/09/18 11:31:17;;;;;;;19.30;14.63;;;;;;;14.20;82.90;98243.72;5056978;28;20040;-73
2022/09/18 11:33:52;;;;;;;16.52;13.57;;;;;;;14.14;83.07;98237.09;5088622;28;20029;-73
2022/09/18 11:36:28;;;;;;;14.35;12.85;;;;;;;14.31;83.78;98240.47;5070169;28;20080;-73
2022/09/18 11:38:57;;;;;;;13.52;12.18;;;;;;;14.28;84.41;98228.47;5071913;28;20376;-73
2022/09/18 11:41:27;;;;;;;13.40;9.65;;;;;;;14.11;84.10;98216.47;5086760;28;20088;-72